Time;durP1;ratioP1;P1;durP2;ratioP2;P2;SDS_P1;SDS_P2;PMS_P1;PMS_P2;Temp;Humidity;BMP_temperature;BMP_pressure;BME280_temperature;BME280_humidity;BME280_pressure;Samples;Min_cycle;Max_cycle;Signal;HPM_P1;HPM_P2
2021/06/12 00:00:41;;;;;;;4.22;3.83;;;21.70;99.90;;;;;;2063395;28;20105;-67
2021/06/12 00:01:43;;;;;;;6.68;4.25;;;21.70;99.90;;;;;;2062154;28;20052;-67
2021/06/12 00:02:43;;;;;;;3.70;3.40;;;21.70;99.90;;;;;;2063371;28;20113;-67
2021/06/12 00:03:44;;;;;;;4.05;3.20;;;21.70;99.90;;;;;;2062726;28;20023;-67
2021/06/12 00:04:44;;;;;;;4.13;3.38;;;21.60;99.90;;;;;;2063001;28;20148;-67
2021/06/12 00:05:45;;;;;;;3.60;3.13;;;21.60;99.90;;;;;;2062593;28;20026;-67
2021/06/12 00:06:45;;;;;;;3.47;3.13;;;21.60;99.90;;;;;;2063194;28;20034;-67
2021/06/12 00:07:46;;;;;;;10.80;2.97;;;21.60;99.90;;;;;;2062340;28;20109;-67
2021/06/12 00:08:47;;;;;;;3.97;3.25;;;21.60;99.90;;;;;;2062304;28;20041;-67
2021/06/12 00:09:47;;;;;;;4.63;3.22;;;21.60;99.90;;;;;;2058109;28;20077;-67
2021/06/12 00:10:48;;;;;;;8.80;4.03;;;21.60;99.90;;;;;;2063123;28;20034;-67
2021/06/12 00:11:49;;;;;;;4.20;3.45;;;21.60;99.90;;;;;;2061383;28;20081;-67
2021/06/12 00:12:50;;;;;;;4.72;3.63;;;21.60;99.90;;;;;;2062449;28;20045;-67
2021/06/12 00:13:51;;;;;;;4.00;3.60;;;21.60;99.90;;;;;;2062695;28;20359;-67
2021/06/12 00:14:52;;;;;;;3.90;3.60;;;21.60;99.90;;;;;;2063365;28;20045;-67
2021/06/12 00:15:53;;;;;;;3.83;3.45;;;21.50;99.90;;;;;;2062700;28;20052;-67
2021/06/12 00:16:53;;;;;;;5.97;3.35;;;21.60;99.90;;;;;;2063279;28;20023;-67
2021/06/12 00:17:54;;;;;;;4.07;3.55;;;21.60;99.90;;;;;;2062723;28;20022;-67
2021/06/12 00:18:55;;;;;;;3.78;3.47;;;21.50;99.90;;;;;;2063189;28;20094;-67
2021/06/12 00:19:55;;;;;;;4.43;3.03;;;21.50;99.90;;;;;;2062916;28;20350;-67
2021/06/12 00:20:57;;;;;;;3.83;3.35;;;21.50;99.90;;;;;;2063138;28;20339;-67
2021/06/12 00:21:58;;;;;;;4.10;3.67;;;21.50;99.90;;;;;;2062406;28;20054;-67
2021/06/12 00:22:59;;;;;;;5.75;3.95;;;21.50;99.90;;;;;;2063250;28;20488;-67
2021/06/12 00:23:59;;;;;;;4.13;3.50;;;21.50;99.90;;;;;;2062605;28;20038;-67
2021/06/12 00:25:00;;;;;;;4.38;3.65;;;21.50;99.90;;;;;;2063316;28;20031;-67
2021/06/12 00:26:00;;;;;;;4.50;4.05;;;21.50;99.90;;;;;;2062616;28;20042;-67
2021/06/12 00:27:01;;;;;;;4.97;3.40;;;21.40;99.90;;;;;;2062939;28;20054;-67
2021/06/12 00:28:02;;;;;;;3.30;3.10;;;21.40;99.90;;;;;;2062622;28;20148;-67
2021/06/12 00:29:03;;;;;;;5.70;3.10;;;21.40;99.90;;;;;;2063151;28;20038;-67
2021/06/12 00:30:04;;;;;;;3.58;3.17;;;21.40;99.90;;;;;;2063096;28;20484;-67
2021/06/12 00:31:05;;;;;;;4.28;3.80;;;21.40;99.90;;;;;;2063182;28;20030;-67
2021/06/12 00:32:06;;;;;;;4.32;3.88;;;21.40;99.90;;;;;;2062712;28;20080;-68
2021/06/12 00:33:07;;;;;;;5.32;3.28;;;21.40;99.90;;;;;;2062991;28;20038;-67
2021/06/12 00:34:07;;;;;;;4.38;3.53;;;21.40;99.90;;;;;;2062630;28;20032;-67
2021/06/12 00:35:11;;;;;;;6.15;3.63;;;21.40;99.90;;;;;;2062765;28;20023;-67
2021/06/12 00:36:11;;;;;;;5.88;3.88;;;21.40;99.90;;;;;;2062663;28;20065;-67
2021/06/12 00:37:12;;;;;;;4.22;3.83;;;21.40;99.90;;;;;;2059747;28;20038;-67
2021/06/12 00:38:13;;;;;;;3.63;3.33;;;21.30;99.90;;;;;;2070915;28;20114;-67
2021/06/12 00:39:14;;;;;;;4.10;3.67;;;21.30;99.90;;;;;;2066576;28;20042;-67
2021/06/12 00:40:16;;;;;;;4.50;3.55;;;21.30;99.90;;;;;;2067676;28;20101;-67
2021/06/12 00:41:18;;;;;;;5.38;3.47;;;21.30;99.90;;;;;;2054374;28;20031;-67
2021/06/12 00:42:19;;;;;;;3.95;3.20;;;21.30;99.90;;;;;;2054144;28;20126;-67
2021/06/12 00:43:19;;;;;;;4.68;3.85;;;21.30;99.90;;;;;;2054571;28;20027;-67
2021/06/12 00:44:20;;;;;;;4.30;3.30;;;21.30;99.90;;;;;;2054845;28;20038;-67
2021/06/12 00:45:23;;;;;;;4.38;3.63;;;21.30;99.90;;;;;;2054805;28;20027;-67
2021/06/12 00:46:24;;;;;;;5.22;3.47;;;21.30;99.90;;;;;;2054780;28;20102;-67
2021/06/12 00:47:24;;;;;;;4.00;3.60;;;21.30;99.90;;;;;;2054872;28;20027;-67
2021/06/12 00:48:27;;;;;;;3.67;3.38;;;21.30;99.90;;;;;;2055058;28;20072;-67
2021/06/12 00:49:28;;;;;;;3.55;3.25;;;21.20;99.90;;;;;;2054657;28;20023;-67
2021/06/12 00:50:32;;;;;;;3.00;2.78;;;21.30;99.90;;;;;;2054766;28;20027;-67
2021/06/12 00:51:32;;;;;;;4.65;3.70;;;21.30;99.90;;;;;;2053906;28;20034;-67
2021/06/12 00:52:34;;;;;;;5.25;3.53;;;21.30;99.90;;;;;;2054828;28;20023;-67
2021/06/12 00:53:37;;;;;;;3.88;3.47;;;21.20;99.90;;;;;;2054693;28;20054;-67
2021/06/12 00:54:38;;;;;;;4.28;3.58;;;21.20;99.90;;;;;;2054682;28;20359;-67
2021/06/12 00:55:38;;;;;;;4.75;3.03;;;21.20;99.90;;;;;;2059011;28;20073;-67
2021/06/12 00:56:39;;;;;;;4.00;3.65;;;21.20;99.90;;;;;;2062772;28;20022;-67
2021/06/12 00:57:40;;;;;;;4.93;3.55;;;21.20;99.90;;;;;;2062547;28;20027;-67
2021/06/12 00:58:43;;;;;;;3.70;3.30;;;21.20;99.90;;;;;;2057603;28;20524;-67
2021/06/12 00:59:43;;;;;;;3.47;3.17;;;21.20;99.90;;;;;;2054748;28;20151;-67
2021/06/12 01:00:44;;;;;;;3.55;3.25;;;21.20;99.90;;;;;;2055366;28;20033;-68
2021/06/12 01:01:44;;;;;;;3.95;3.50;;;21.20;99.90;;;;;;2053949;28;20035;-68
2021/06/12 01:02:46;;;;;;;5.43;4.05;;;21.20;99.90;;;;;;2054965;28;20111;-68
2021/06/12 01:03:47;;;;;;;3.70;3.40;;;21.20;99.90;;;;;;2054732;28;20027;-68
2021/06/12 01:04:48;;;;;;;3.97;3.30;;;21.20;99.90;;;;;;2054429;28;20084;-68
2021/06/12 01:05:49;;;;;;;4.28;3.67;;;21.20;99.90;;;;;;2054006;28;20129;-68
2021/06/12 01:06:50;;;;;;;3.60;3.30;;;21.20;99.90;;;;;;2059586;28;20054;-68
2021/06/12 01:07:51;;;;;;;4.82;3.92;;;21.20;99.90;;;;;;2055425;28;20034;-68
2021/06/12 01:08:52;;;;;;;4.45;4.05;;;21.20;99.90;;;;;;2062484;28;20163;-68
2021/06/12 01:09:52;;;;;;;4.25;3.53;;;21.20;99.90;;;;;;2062533;28;20088;-68
2021/06/12 01:10:53;;;;;;;2.90;2.70;;;21.20;99.90;;;;;;2062385;28;20023;-68
2021/06/12 01:12:05;;;;;;;6.13;4.03;;;21.20;99.90;;;;;;2061044;28;20034;-68
2021/06/12 01:13:34;;;;;;;4.97;4.22;;;21.20;99.90;;;;;;2062726;28;20037;-68
2021/06/12 01:14:40;;;;;;;5.78;4.30;;;21.20;99.90;;;;;;2062420;28;20033;-68
2021/06/12 01:15:52;;;;;;;4.80;4.30;;;21.20;99.90;;;;;;2062897;28;20030;-68
2021/06/12 01:17:24;;;;;;;6.70;4.80;;;21.20;99.90;;;;;;2063061;28;20027;-68
2021/06/12 01:18:29;;;;;;;7.10;4.55;;;21.10;99.90;;;;;;2062508;28;20512;-68
2021/06/12 01:20:04;;;;;;;5.65;4.53;;;21.20;99.90;;;;;;2062763;28;20386;-68
2021/06/12 01:21:29;;;;;;;6.15;4.55;;;21.10;99.90;;;;;;2062500;28;20057;-68
2021/06/12 01:22:45;;;;;;;6.35;5.13;;;21.10;99.90;;;;;;2062193;28;20018;-68
2021/06/12 01:23:55;;;;;;;6.60;5.00;;;21.10;99.90;;;;;;2062406;28;20091;-68
2021/06/12 01:24:55;;;;;;;7.63;5.28;;;21.20;99.90;;;;;;2061334;28;20023;-68
2021/06/12 01:26:15;;;;;;;5.18;4.78;;;21.10;99.90;;;;;;2059957;28;20042;-68
2021/06/12 01:27:49;;;;;;;7.00;5.03;;;21.20;99.90;;;;;;2055127;28;20039;-68
2021/06/12 01:29:29;;;;;;;9.63;5.63;;;21.20;99.90;;;;;;2061776;28;20560;-68
2021/06/12 01:30:34;;;;;;;;;;;21.10;99.90;;;;;;2058681;28;20386;-68
2021/06/12 01:31:37;;;;;;;6.50;4.88;;;21.00;99.90;;;;;;2057443;28;19910;-68
2021/06/12 01:32:46;;;;;;;6.22;5.63;;;21.10;99.90;;;;;;2061548;28;20079;-68
2021/06/12 01:33:48;;;;;;;12.23;6.05;;;21.10;99.90;;;;;;2061176;28;20071;-68
2021/06/12 01:34:51;;;;;;;8.18;5.70;;;21.10;99.90;;;;;;2062375;28;20097;-68
2021/06/12 01:35:58;;;;;;;7.70;5.18;;;21.10;99.90;;;;;;2062437;28;20370;-68
2021/06/12 01:37:01;;;;;;;10.02;5.65;;;21.10;99.90;;;;;;2061626;28;20062;-68
2021/06/12 01:38:05;;;;;;;5.55;5.00;;;21.10;99.90;;;;;;2061812;28;20105;-68
2021/06/12 01:39:05;;;;;;;10.52;6.30;;;21.20;99.90;;;;;;2057701;28;20084;-68
2021/06/12 01:40:09;;;;;;;9.65;6.05;;;21.20;99.90;;;;;;2054440;28;20108;-68
2021/06/12 01:41:13;;;;;;;8.73;5.88;;;21.20;99.90;;;;;;2054656;28;20038;-68
2021/06/12 01:42:16;;;;;;;9.18;5.78;;;21.20;99.90;;;;;;2053380;28;20019;-68
2021/06/12 01:43:19;;;;;;;8.70;5.85;;;21.20;99.90;;;;;;2054653;28;20027;-68
2021/06/12 01:44:20;;;;;;;9.75;6.05;;;21.20;99.90;;;;;;2054221;28;20046;-68
2021/06/12 01:45:22;;;;;;;8.00;5.32;;;21.20;99.90;;;;;;2054608;28;20386;-68
2021/06/12 01:46:24;;;;;;;7.20;5.63;;;21.30;99.90;;;;;;2059919;28;20389;-68
2021/06/12 01:47:25;;;;;;;8.77;5.85;;;21.30;99.90;;;;;;2062404;28;20025;-68
2021/06/12 01:48:26;;;;;;;7.68;5.43;;;21.30;99.90;;;;;;2062534;28;20042;-68
2021/06/12 01:49:31;;;;;;;6.70;5.95;;;21.30;99.90;;;;;;2062510;28;20071;-68
2021/06/12 01:50:32;;;;;;;8.30;5.43;;;21.30;99.90;;;;;;2062271;28;20032;-68
2021/06/12 01:51:33;;;;;;;7.18;4.95;;;21.30;99.90;;;;;;2060916;28;20037;-68
2021/06/12 01:52:36;;;;;;;8.52;5.25;;;21.30;99.90;;;;;;2054181;28;20080;-68
2021/06/12 01:53:40;;;;;;;7.95;5.13;;;21.30;99.90;;;;;;2054565;28;20026;-68
2021/06/12 01:54:42;;;;;;;6.55;4.47;;;21.30;99.90;;;;;;2054263;28;20332;-68
2021/06/12 01:55:45;;;;;;;5.60;5.03;;;21.30;99.90;;;;;;2059049;28;20030;-68
2021/06/12 01:56:46;;;;;;;9.50;4.85;;;21.30;99.90;;;;;;2062481;28;20019;-68
2021/06/12 01:57:48;;;;;;;6.65;4.88;;;21.30;99.90;;;;;;2062560;28;20033;-68
2021/06/12 01:58:50;;;;;;;5.75;4.72;;;21.30;99.90;;;;;;2062115;28;20033;-68
2021/06/12 01:59:53;;;;;;;5.10;4.60;;;21.30;99.90;;;;;;2062475;28;20045;-68
2021/06/12 02:00:54;;;;;;;7.90;4.65;;;21.30;99.90;;;;;;2062693;28;20023;-68
2021/06/12 02:01:58;;;;;;;8.93;4.97;;;21.30;99.90;;;;;;2063056;28;20052;-68
2021/06/12 02:03:00;;;;;;;5.28;4.55;;;21.30;99.90;;;;;;2062401;28;20094;-68
2021/06/12 02:04:02;;;;;;;5.38;4.75;;;21.30;99.90;;;;;;2063107;28;20053;-68
2021/06/12 02:05:04;;;;;;;6.93;4.78;;;21.30;99.90;;;;;;2059045;28;20042;-68
2021/06/12 02:06:09;;;;;;;4.93;4.18;;;21.30;99.90;;;;;;2055698;28;20038;-68
2021/06/12 02:07:10;;;;;;;10.50;5.20;;;21.30;99.90;;;;;;2061919;28;20034;-68
2021/06/12 02:08:13;;;;;;;5.00;3.97;;;21.30;99.90;;;;;;2060375;28;20091;-68
2021/06/12 02:09:16;;;;;;;6.78;3.90;;;21.30;99.90;;;;;;2057560;28;20026;-68
2021/06/12 02:10:20;;;;;;;5.22;4.57;;;21.30;99.90;;;;;;2062245;28;20473;-68
2021/06/12 02:11:22;;;;;;;6.80;4.43;;;21.40;99.90;;;;;;2064677;28;20037;-68
2021/06/12 02:12:25;;;;;;;5.38;4.20;;;21.30;99.90;;;;;;2063546;28;20075;-68
2021/06/12 02:13:26;;;;;;;6.63;4.28;;;21.40;99.90;;;;;;2057547;28;20054;-68
2021/06/12 02:14:27;;;;;;;4.95;3.88;;;21.40;99.90;;;;;;2063829;28;20030;-68
2021/06/12 02:15:30;;;;;;;5.55;4.50;;;21.40;99.90;;;;;;2063296;28;20482;-68
2021/06/12 02:16:31;;;;;;;5.32;4.22;;;21.40;99.90;;;;;;2063643;28;20080;-68
2021/06/12 02:17:33;;;;;;;4.97;4.20;;;21.40;99.90;;;;;;2063639;28;20115;-68
2021/06/12 02:18:35;;;;;;;5.97;4.50;;;21.40;99.90;;;;;;2063394;28;20023;-68
2021/06/12 02:19:38;;;;;;;4.78;4.28;;;21.40;99.90;;;;;;2060072;28;20049;-68
2021/06/12 02:20:39;;;;;;;5.45;4.32;;;21.40;99.90;;;;;;2055746;28;20029;-68
2021/06/12 02:21:41;;;;;;;7.75;4.40;;;21.40;99.90;;;;;;2054899;28;20031;-68
2021/06/12 02:22:52;;;;;;;4.85;3.78;;;21.40;99.90;;;;;;2055555;28;20023;-68
2021/06/12 02:23:53;;;;;;;6.65;4.22;;;21.40;99.90;;;;;;2055480;28;20027;-68
2021/06/12 02:24:54;;;;;;;4.63;4.05;;;21.40;99.90;;;;;;2055567;28;20409;-68
2021/06/12 02:25:55;;;;;;;4.45;4.05;;;21.40;99.90;;;;;;2055117;28;20030;-68
2021/06/12 02:26:58;;;;;;;4.57;3.90;;;21.40;99.90;;;;;;2062182;28;20028;-68
2021/06/12 02:28:02;;;;;;;5.47;4.07;;;21.40;99.90;;;;;;2057817;28;20030;-68
2021/06/12 02:29:03;;;;;;;4.50;3.90;;;21.40;99.90;;;;;;2055478;28;20030;-68
2021/06/12 02:30:05;;;;;;;5.22;3.83;;;21.40;99.90;;;;;;2055417;28;20030;-68
2021/06/12 02:31:11;;;;;;;4.70;4.00;;;21.40;99.90;;;;;;2060897;28;20034;-68
2021/06/12 02:32:14;;;;;;;4.90;3.78;;;21.40;99.90;;;;;;2062139;28;20033;-68
2021/06/12 02:33:17;;;;;;;7.18;3.95;;;21.40;99.90;;;;;;2063739;28;20382;-68
2021/06/12 02:34:18;;;;;;;4.65;4.00;;;21.40;99.90;;;;;;2058012;28;20031;-68
2021/06/12 02:35:18;;;;;;;4.28;3.58;;;21.40;99.90;;;;;;2059824;28;20533;-68
2021/06/12 02:36:19;;;;;;;4.20;3.70;;;21.40;99.90;;;;;;2059453;28;20034;-68
2021/06/12 02:37:20;;;;;;;3.72;3.22;;;21.40;99.90;;;;;;2070085;28;20030;-68
2021/06/12 02:38:22;;;;;;;4.13;3.72;;;21.40;99.90;;;;;;2108463;28;20027;-68
2021/06/12 02:39:22;;;;;;;4.13;3.75;;;21.40;99.90;;;;;;2096223;28;20124;-68
2021/06/12 02:40:23;;;;;;;5.20;3.80;;;21.40;99.90;;;;;;2055552;28;20034;-68
2021/06/12 02:41:24;;;;;;;4.88;3.80;;;21.40;99.90;;;;;;2055105;28;20102;-68
2021/06/12 02:42:24;;;;;;;4.18;3.63;;;21.40;99.90;;;;;;2055362;28;20443;-68
2021/06/12 02:43:26;;;;;;;4.00;3.35;;;21.40;99.90;;;;;;2056452;28;20483;-68
2021/06/12 02:44:27;;;;;;;4.07;3.50;;;21.40;99.90;;;;;;2063534;28;20474;-69
2021/06/12 02:45:28;;;;;;;7.32;4.00;;;21.50;99.90;;;;;;2063401;28;20428;-69
2021/06/12 02:46:32;;;;;;;4.97;3.38;;;21.40;99.90;;;;;;2063348;28;20023;-68
2021/06/12 02:47:36;;;;;;;3.42;2.95;;;21.40;99.90;;;;;;2063364;28;20023;-69
2021/06/12 02:48:37;;;;;;;5.78;3.50;;;21.40;99.90;;;;;;2063551;28;20688;-69
2021/06/12 02:49:40;;;;;;;3.50;3.20;;;21.40;99.90;;;;;;2063439;28;20033;-68
2021/06/12 02:50:44;;;;;;;3.83;3.50;;;21.40;99.90;;;;;;2063345;28;20014;-69
2021/06/12 02:51:48;;;;;;;8.13;3.88;;;21.40;99.90;;;;;;2062429;28;20045;-69
2021/06/12 02:52:51;;;;;;;4.43;3.40;;;21.40;99.90;;;;;;2063539;28;20034;-68
2021/06/12 02:53:54;;;;;;;5.55;3.60;;;21.40;99.90;;;;;;2063310;28;20027;-68
2021/06/12 02:54:59;;;;;;;4.95;3.33;;;21.40;99.90;;;;;;2063562;28;20531;-68
2021/06/12 02:56:02;;;;;;;7.13;3.42;;;21.40;99.90;;;;;;2063516;28;20477;-68
2021/06/12 02:57:05;;;;;;;4.38;3.85;;;21.40;99.90;;;;;;2063308;28;20030;-68
2021/06/12 02:58:09;;;;;;;4.28;3.78;;;21.40;99.90;;;;;;2063409;28;20112;-68
2021/06/12 02:59:15;;;;;;;5.07;3.67;;;21.40;99.90;;;;;;2063033;28;20022;-68
2021/06/12 03:00:19;;;;;;;6.30;3.38;;;21.30;99.90;;;;;;2063551;28;20378;-68
2021/06/12 03:01:20;;;;;;;4.07;3.67;;;21.30;99.90;;;;;;2063268;28;20019;-68
2021/06/12 03:02:22;;;;;;;3.88;3.47;;;21.30;99.90;;;;;;2061676;28;20378;-68
2021/06/12 03:03:24;;;;;;;4.93;3.63;;;21.30;99.90;;;;;;2062199;28;20022;-69
2021/06/12 03:04:26;;;;;;;5.90;4.05;;;21.30;99.90;;;;;;2063668;28;20015;-68
2021/06/12 03:05:29;;;;;;;10.05;3.75;;;21.30;99.90;;;;;;2063656;28;20378;-68
2021/06/12 03:06:30;;;;;;;4.07;3.50;;;21.30;99.90;;;;;;2063962;28;20018;-68
2021/06/12 03:07:34;;;;;;;4.82;3.20;;;21.30;99.90;;;;;;2063923;28;20029;-68
2021/06/12 03:08:37;;;;;;;3.78;3.20;;;21.30;99.90;;;;;;2064084;28;20045;-68
2021/06/12 03:09:39;;;;;;;4.90;3.60;;;21.30;99.90;;;;;;2063254;28;20113;-68
2021/06/12 03:10:40;;;;;;;4.03;2.83;;;21.20;99.90;;;;;;2063712;28;20418;-68
2021/06/12 03:11:44;;;;;;;3.03;2.70;;;21.20;99.90;;;;;;2062985;28;20053;-68
2021/06/12 03:12:46;;;;;;;3.38;3.08;;;21.30;99.90;;;;;;2063612;28;20457;-68
2021/06/12 03:13:50;;;;;;;2.95;2.60;;;21.20;99.90;;;;;;2063420;28;20026;-69
2021/06/12 03:14:51;;;;;;;3.33;2.92;;;21.30;99.90;;;;;;2057468;28;20019;-68
2021/06/12 03:15:54;;;;;;;5.32;3.55;;;21.20;99.90;;;;;;2055317;28;20015;-68
2021/06/12 03:16:55;;;;;;;5.05;3.53;;;21.30;99.90;;;;;;2055488;28;20046;-68
2021/06/12 03:17:56;;;;;;;4.70;3.25;;;21.20;99.90;;;;;;2059611;28;20019;-68
2021/06/12 03:18:58;;;;;;;4.97;3.70;;;21.20;99.90;;;;;;2063583;28;20061;-69
2021/06/12 03:20:01;;;;;;;9.30;4.22;;;21.20;99.90;;;;;;2063631;28;20031;-68
2021/06/12 03:21:03;;;;;;;4.10;3.33;;;21.20;99.90;;;;;;2063660;28;20019;-68
2021/06/12 03:22:05;;;;;;;3.05;2.85;;;21.20;99.90;;;;;;2062632;28;20117;-68
2021/06/12 03:23:08;;;;;;;3.10;2.85;;;21.20;99.90;;;;;;2063453;28;20022;-68
2021/06/12 03:24:13;;;;;;;5.60;3.88;;;21.20;99.90;;;;;;2063048;28;20026;-68
2021/06/12 03:25:15;;;;;;;3.80;3.30;;;21.20;99.90;;;;;;2063415;28;20462;-68
2021/06/12 03:26:17;;;;;;;3.60;3.15;;;21.20;99.90;;;;;;2062799;28;20042;-68
2021/06/12 03:27:17;;;;;;;5.43;3.92;;;21.20;99.90;;;;;;2063350;28;20531;-68
2021/06/12 03:28:20;;;;;;;4.68;3.65;;;21.20;99.90;;;;;;2063261;28;20030;-68
2021/06/12 03:29:21;;;;;;;5.35;4.00;;;21.20;99.90;;;;;;2058770;28;20066;-68
2021/06/12 03:30:23;;;;;;;5.20;4.32;;;21.20;99.90;;;;;;2056415;28;20038;-68
2021/06/12 03:31:24;;;;;;;6.15;4.13;;;21.20;99.90;;;;;;2062780;28;20483;-68
2021/06/12 03:32:26;;;;;;;6.70;4.63;;;21.20;99.90;;;;;;2063095;28;20022;-68
2021/06/12 03:33:26;;;;;;;7.40;4.35;;;21.20;99.90;;;;;;2063369;28;20040;-68
2021/06/12 03:34:28;;;;;;;5.25;4.05;;;21.20;99.90;;;;;;2057014;28;20031;-69
2021/06/12 03:35:30;;;;;;;6.13;4.40;;;21.20;99.90;;;;;;2062745;28;20034;-68
2021/06/12 03:36:31;;;;;;;5.55;3.97;;;21.20;99.90;;;;;;2063539;28;20098;-68
2021/06/12 03:37:32;;;;;;;4.28;3.85;;;21.10;99.90;;;;;;2061639;28;20029;-68
2021/06/12 03:38:35;;;;;;;6.00;4.63;;;21.10;99.90;;;;;;2063142;28;20154;-68
2021/06/12 03:39:35;;;;;;;4.57;4.13;;;21.10;99.90;;;;;;2054518;28;20023;-68
2021/06/12 03:40:36;;;;;;;7.90;4.47;;;21.10;99.90;;;;;;2061879;28;20038;-68
2021/06/12 03:41:37;;;;;;;7.18;4.38;;;21.10;99.90;;;;;;2062618;28;20041;-68
2021/06/12 03:42:38;;;;;;;4.68;3.88;;;21.10;99.90;;;;;;2063385;28;20022;-68
2021/06/12 03:43:40;;;;;;;4.65;3.97;;;21.10;99.90;;;;;;2063273;28;20037;-68
2021/06/12 03:44:44;;;;;;;6.88;4.75;;;21.10;99.90;;;;;;2063279;28;20027;-68
2021/06/12 03:45:46;;;;;;;5.13;4.60;;;21.20;99.90;;;;;;2063067;28;20019;-69
2021/06/12 03:46:50;;;;;;;8.63;5.22;;;21.10;99.90;;;;;;2063122;28;20026;-68
2021/06/12 03:47:52;;;;;;;9.70;4.72;;;21.10;99.90;;;;;;2063208;28;20026;-68
2021/06/12 03:48:54;;;;;;;8.35;4.95;;;21.20;99.90;;;;;;2063025;28;20022;-68
2021/06/12 03:49:55;;;;;;;8.13;4.95;;;21.20;99.90;;;;;;2062951;28;20026;-69
2021/06/12 03:50:57;;;;;;;11.38;5.55;;;21.10;99.90;;;;;;2063428;28;20026;-69
2021/06/12 03:51:58;;;;;;;7.55;5.13;;;21.20;99.90;;;;;;2062443;28;20374;-68
2021/06/12 03:53:00;;;;;;;5.90;4.47;;;21.20;99.90;;;;;;2063273;28;20027;-68
2021/06/12 03:54:00;;;;;;;5.93;4.35;;;21.20;99.90;;;;;;2062704;28;20033;-69
2021/06/12 03:55:04;;;;;;;5.38;3.70;;;21.10;99.90;;;;;;2061514;28;20030;-68
2021/06/12 03:56:05;;;;;;;9.32;5.30;;;21.10;99.90;;;;;;2062249;28;20026;-68
2021/06/12 03:57:06;;;;;;;8.93;5.63;;;21.20;99.90;;;;;;2063136;28;20030;-68
2021/06/12 03:58:07;;;;;;;8.82;5.22;;;21.10;99.90;;;;;;2062302;28;20536;-68
2021/06/12 03:59:08;;;;;;;7.05;5.00;;;21.20;99.90;;;;;;2062576;28;20354;-68
2021/06/12 04:00:10;;;;;;;8.05;5.32;;;21.10;99.90;;;;;;2058834;28;20109;-68
2021/06/12 04:01:16;;;;;;;10.02;5.45;;;21.10;99.90;;;;;;2063384;28;20489;-68
2021/06/12 04:02:16;;;;;;;10.77;5.97;;;21.10;99.90;;;;;;2062464;28;20113;-68
2021/06/12 04:03:17;;;;;;;8.73;5.68;;;21.10;99.90;;;;;;2063403;28;20034;-69
2021/06/12 04:04:20;;;;;;;9.30;5.40;;;21.10;99.90;;;;;;2062821;28;20026;-68
2021/06/12 04:05:20;;;;;;;6.63;5.60;;;21.10;99.90;;;;;;2062761;28;20027;-68
2021/06/12 04:06:21;;;;;;;8.18;5.57;;;21.10;99.90;;;;;;2062978;28;20418;-68
2021/06/12 04:07:22;;;;;;;8.07;6.40;;;21.10;99.90;;;;;;2062302;28;20500;-68
2021/06/12 04:08:22;;;;;;;9.07;5.75;;;21.10;99.90;;;;;;2056916;28;20106;-68
2021/06/12 04:09:23;;;;;;;7.25;5.57;;;21.10;99.90;;;;;;2055239;28;20023;-68
2021/06/12 04:10:23;;;;;;;7.45;4.85;;;21.20;99.90;;;;;;2054658;28;20482;-68
2021/06/12 04:11:24;;;;;;;13.10;6.18;;;21.10;99.90;;;;;;2054936;28;20023;-68
2021/06/12 04:12:25;;;;;;;9.10;6.00;;;21.10;99.90;;;;;;2054595;28;20049;-68
2021/06/12 04:13:28;;;;;;;7.85;6.05;;;21.20;99.90;;;;;;2054950;28;20094;-68
2021/06/12 04:14:28;;;;;;;10.63;6.82;;;21.20;99.90;;;;;;2054850;28;20054;-68
2021/06/12 04:15:29;;;;;;;10.35;6.00;;;21.20;99.90;;;;;;2055068;28;20045;-68
2021/06/12 04:16:30;;;;;;;7.07;5.82;;;21.20;99.90;;;;;;2054872;28;20041;-68
2021/06/12 04:17:30;;;;;;;8.60;5.90;;;21.20;99.90;;;;;;2055839;28;20037;-68
2021/06/12 04:18:31;;;;;;;11.73;6.28;;;21.20;99.90;;;;;;2063106;28;20035;-68
2021/06/12 04:19:32;;;;;;;7.45;6.22;;;21.20;99.90;;;;;;2063032;28;20095;-68
2021/06/12 04:20:32;;;;;;;8.35;5.78;;;21.20;99.90;;;;;;2062870;28;20097;-68
2021/06/12 04:21:33;;;;;;;10.35;6.03;;;21.10;99.90;;;;;;2063952;28;20022;-68
2021/06/12 04:22:33;;;;;;;11.45;6.22;;;21.20;99.90;;;;;;2063641;28;20050;-68
2021/06/12 04:23:34;;;;;;;8.30;5.13;;;21.10;99.90;;;;;;2062575;28;20027;-69
2021/06/12 04:24:35;;;;;;;5.82;4.30;;;21.10;99.90;;;;;;2062308;28;20026;-69
2021/06/12 04:25:36;;;;;;;7.15;4.72;;;21.10;99.90;;;;;;2055041;28;20474;-68
2021/06/12 04:26:37;;;;;;;7.88;5.38;;;21.10;99.90;;;;;;2062906;28;20371;-68
2021/06/12 04:27:39;;;;;;;7.00;5.13;;;21.10;99.90;;;;;;2063007;28;20022;-68
2021/06/12 04:28:39;;;;;;;5.45;4.68;;;21.10;99.90;;;;;;2063231;28;20026;-68
2021/06/12 04:29:40;;;;;;;6.22;4.55;;;21.10;99.90;;;;;;2062678;28;20022;-68
2021/06/12 04:30:40;;;;;;;5.38;4.40;;;21.10;99.90;;;;;;2062801;28;20023;-68
2021/06/12 04:31:41;;;;;;;7.43;4.93;;;21.10;99.90;;;;;;2062047;28;20037;-68
2021/06/12 04:32:42;;;;;;;6.22;4.07;;;21.10;99.90;;;;;;2062903;28;20559;-68
2021/06/12 04:33:42;;;;;;;7.10;4.55;;;21.10;99.90;;;;;;2062653;28;20094;-68
2021/06/12 04:34:43;;;;;;;7.82;4.10;;;21.10;99.90;;;;;;2062883;28;20030;-68
2021/06/12 04:35:43;;;;;;;5.93;4.03;;;21.00;99.90;;;;;;2062730;28;20023;-68
2021/06/12 04:36:44;;;;;;;9.07;3.70;;;21.10;99.90;;;;;;2063194;28;20841;-68
2021/06/12 04:37:44;;;;;;;6.05;4.18;;;21.10;99.90;;;;;;2062585;28;20019;-68
2021/06/12 04:38:45;;;;;;;5.88;3.90;;;21.10;99.90;;;;;;2060882;28;20508;-68
2021/06/12 04:39:46;;;;;;;9.32;3.88;;;21.10;99.90;;;;;;2054259;28;20550;-69
2021/06/12 04:40:46;;;;;;;5.03;3.65;;;21.10;99.90;;;;;;2059198;28;20079;-69
2021/06/12 04:41:47;;;;;;;6.68;4.10;;;21.10;99.90;;;;;;2054000;28;20505;-68
2021/06/12 04:42:47;;;;;;;5.05;3.45;;;21.10;99.90;;;;;;2063017;28;20105;-69
2021/06/12 04:43:48;;;;;;;3.33;3.03;;;21.10;99.90;;;;;;2062989;28;20030;-68
2021/06/12 04:44:48;;;;;;;6.38;3.53;;;21.10;99.90;;;;;;2063099;28;20026;-68
2021/06/12 04:45:49;;;;;;;5.10;3.45;;;21.10;99.90;;;;;;2061837;28;20022;-68
2021/06/12 04:46:50;;;;;;;8.93;4.93;;;21.10;99.90;;;;;;2062276;28;20026;-69
2021/06/12 04:47:50;;;;;;;7.15;4.15;;;21.10;99.90;;;;;;2058710;28;20036;-69
2021/06/12 04:48:51;;;;;;;7.47;4.13;;;21.10;99.90;;;;;;2058263;28;20035;-69
2021/06/12 04:49:51;;;;;;;5.28;3.72;;;21.10;99.90;;;;;;2059286;28;20500;-68
2021/06/12 04:50:52;;;;;;;6.57;3.45;;;21.20;99.90;;;;;;2062801;28;20057;-68
2021/06/12 04:51:53;;;;;;;3.72;3.40;;;21.20;99.90;;;;;;2062145;28;20061;-69
2021/06/12 04:52:53;;;;;;;4.60;3.20;;;21.20;99.90;;;;;;2063370;28;20023;-69
2021/06/12 04:53:54;;;;;;;6.65;3.47;;;21.20;99.90;;;;;;2062464;28;20424;-69
2021/06/12 04:54:54;;;;;;;9.55;4.13;;;21.20;99.90;;;;;;2062943;28;20053;-69
2021/06/12 04:55:55;;;;;;;5.10;3.80;;;21.20;99.90;;;;;;2062661;28;20026;-69
2021/06/12 04:56:56;;;;;;;5.43;4.20;;;21.20;99.90;;;;;;2062650;28;20026;-69
2021/06/12 04:57:57;;;;;;;8.70;3.38;;;21.20;99.90;;;;;;2062652;28;20084;-69
2021/06/12 04:58:57;;;;;;;5.18;4.15;;;21.20;99.90;;;;;;2062625;28;20022;-70
2021/06/12 04:59:58;;;;;;;6.18;4.15;;;21.30;99.90;;;;;;2063063;28;20061;-69
2021/06/12 05:00:58;;;;;;;8.63;3.60;;;21.30;99.90;;;;;;2062590;28;20087;-69
2021/06/12 05:01:59;;;;;;;4.38;3.20;;;21.30;99.90;;;;;;2062034;28;20105;-69
2021/06/12 05:02:59;;;;;;;7.43;4.03;;;21.30;99.90;;;;;;2062328;28;20035;-70
2021/06/12 05:04:00;;;;;;;6.35;3.45;;;21.30;99.90;;;;;;2062089;28;20029;-69
2021/06/12 05:05:01;;;;;;;9.80;3.58;;;21.40;99.90;;;;;;2061970;28;20034;-69
2021/06/12 05:06:02;;;;;;;5.95;3.20;;;21.40;99.90;;;;;;2055020;28;20602;-69
2021/06/12 05:07:03;;;;;;;7.05;3.47;;;21.40;99.90;;;;;;2061620;28;20039;-69
2021/06/12 05:08:03;;;;;;;4.70;3.00;;;21.50;99.90;;;;;;2062719;28;20738;-69
2021/06/12 05:09:04;;;;;;;7.57;3.88;;;21.50;99.90;;;;;;2062488;28;20054;-69
2021/06/12 05:10:07;;;;;;;10.40;4.18;;;21.50;99.90;;;;;;2062726;28;20446;-69
2021/06/12 05:11:07;;;;;;;9.50;3.50;;;21.60;99.90;;;;;;2062608;28;20041;-69
2021/06/12 05:12:09;;;;;;;5.68;3.30;;;21.60;99.90;;;;;;2062069;28;20110;-69
2021/06/12 05:13:10;;;;;;;6.65;4.25;;;21.60;99.90;;;;;;2062468;28;20113;-70
2021/06/12 05:14:10;;;;;;;11.57;4.65;;;21.60;99.90;;;;;;2062418;28;20023;-69
2021/06/12 05:15:11;;;;;;;9.52;3.78;;;21.60;99.90;;;;;;2062384;28;20030;-69
2021/06/12 05:16:12;;;;;;;6.50;4.35;;;21.70;99.90;;;;;;2060808;28;20435;-69
2021/06/12 05:17:15;;;;;;;7.25;4.72;;;21.70;99.90;;;;;;2054718;28;20034;-69
2021/06/12 05:18:17;;;;;;;6.20;4.18;;;21.70;99.90;;;;;;2061648;28;20015;-69
2021/06/12 05:19:17;;;;;;;6.90;4.55;;;21.70;99.90;;;;;;2062373;28;20026;-69
2021/06/12 05:20:21;;;;;;;5.85;4.47;;;21.70;99.90;;;;;;2062954;28;20470;-69
2021/06/12 05:21:21;;;;;;;5.50;4.22;;;21.80;99.90;;;;;;2062328;28;20041;-69
2021/06/12 05:22:25;;;;;;;6.22;4.50;;;21.70;99.90;;;;;;2062364;28;20026;-69
2021/06/12 05:23:28;;;;;;;9.02;4.57;;;21.70;99.90;;;;;;2062433;28;20026;-69
2021/06/12 05:24:29;;;;;;;7.35;4.80;;;21.80;99.90;;;;;;2062350;28;20470;-69